sensor_id;sensor_type;location;lat;lon;timestamp;pressure;altitude;pressure_sealevel;temperature;humidity
50349;BME280;36250;48.740;22.174;2023-08-24T00:00:36;100519.88;;;24.09;75.35
50349;BME280;36250;48.740;22.174;2023-08-24T00:03:02;100520.50;;;24.06;75.54
50349;BME280;36250;48.740;22.174;2023-08-24T00:05:28;100521.84;;;24.00;75.72
50349;BME280;36250;48.740;22.174;2023-08-24T00:07:53;100527.25;;;23.97;75.84
50349;BME280;36250;48.740;22.174;2023-08-24T00:10:18;100532.84;;;23.88;76.03
50349;BME280;36250;48.740;22.174;2023-08-24T00:12:43;100526.97;;;23.73;75.97
50349;BME280;36250;48.740;22.174;2023-08-24T00:15:09;100526.84;;;23.52;76.63
50349;BME280;36250;48.740;22.174;2023-08-24T00:17:34;100522.59;;;23.46;76.60
50349;BME280;36250;48.740;22.174;2023-08-24T00:19:59;100527.34;;;23.54;76.55
50349;BME280;36250;48.740;22.174;2023-08-24T00:22:26;100522.25;;;23.56;76.60
50349;BME280;36250;48.740;22.174;2023-08-24T00:24:51;100529.13;;;23.59;76.54
50349;BME280;36250;48.740;22.174;2023-08-24T00:27:16;100522.44;;;23.60;76.60
50349;BME280;36250;48.740;22.174;2023-08-24T00:29:41;100528.13;;;23.63;76.76
50349;BME280;36250;48.740;22.174;2023-08-24T00:32:07;100532.88;;;23.71;76.78
50349;BME280;36250;48.740;22.174;2023-08-24T00:34:33;100529.44;;;23.74;76.58
50349;BME280;36250;48.740;22.174;2023-08-24T00:36:58;100530.06;;;23.80;76.44
50349;BME280;36250;48.740;22.174;2023-08-24T00:39:23;100530.88;;;23.89;75.97
50349;BME280;36250;48.740;22.174;2023-08-24T00:41:49;100528.41;;;23.87;75.73
50349;BME280;36250;48.740;22.174;2023-08-24T00:44:14;100526.47;;;23.88;75.69
50349;BME280;36250;48.740;22.174;2023-08-24T00:46:39;100518.94;;;23.88;75.63
50349;BME280;36250;48.740;22.174;2023-08-24T00:49:06;100520.56;;;23.89;76.05
50349;BME280;36250;48.740;22.174;2023-08-24T00:51:32;100522.19;;;23.90;75.49
50349;BME280;36250;48.740;22.174;2023-08-24T00:53:57;100522.03;;;23.87;75.89
50349;BME280;36250;48.740;22.174;2023-08-24T00:56:23;100523.50;;;23.84;75.32
50349;BME280;36250;48.740;22.174;2023-08-24T00:58:49;100520.72;;;23.84;74.95
50349;BME280;36250;48.740;22.174;2023-08-24T01:01:15;100519.28;;;23.78;74.45
50349;BME280;36250;48.740;22.174;2023-08-24T01:03:41;100522.06;;;23.78;74.50
50349;BME280;36250;48.740;22.174;2023-08-24T01:06:06;100514.06;;;23.77;74.54
50349;BME280;36250;48.740;22.174;2023-08-24T01:08:32;100512.06;;;23.77;74.44
50349;BME280;36250;48.740;22.174;2023-08-24T01:10:59;100516.50;;;23.70;74.44
50349;BME280;36250;48.740;22.174;2023-08-24T01:13:32;100519.13;;;23.58;75.09
50349;BME280;36250;48.740;22.174;2023-08-24T01:16:04;100520.47;;;23.43;75.29
50349;BME280;36250;48.740;22.174;2023-08-24T01:18:31;100519.94;;;23.24;75.39
50349;BME280;36250;48.740;22.174;2023-08-24T01:20:57;100524.19;;;22.96;76.49
50349;BME280;36250;48.740;22.174;2023-08-24T01:23:27;100520.06;;;22.76;76.63
50349;BME280;36250;48.740;22.174;2023-08-24T01:25:58;100515.47;;;22.63;77.80
50349;BME280;36250;48.740;22.174;2023-08-24T01:28:23;100519.22;;;22.67;78.16
50349;BME280;36250;48.740;22.174;2023-08-24T01:30:49;100517.31;;;22.84;77.67
50349;BME280;36250;48.740;22.174;2023-08-24T01:33:14;100508.19;;;22.93;76.76
50349;BME280;36250;48.740;22.174;2023-08-24T01:35:40;100505.25;;;22.98;76.82
50349;BME280;36250;48.740;22.174;2023-08-24T01:38:06;100511.63;;;22.98;76.58
50349;BME280;36250;48.740;22.174;2023-08-24T01:40:35;100507.19;;;22.97;76.45
50349;BME280;36250;48.740;22.174;2023-08-24T01:43:02;100499.50;;;22.94;76.43
50349;BME280;36250;48.740;22.174;2023-08-24T01:45:29;100494.44;;;22.87;76.81
50349;BME280;36250;48.740;22.174;2023-08-24T01:47:55;100501.13;;;22.86;77.16
50349;BME280;36250;48.740;22.174;2023-08-24T01:50:20;100495.44;;;22.83;77.17
50349;BME280;36250;48.740;22.174;2023-08-24T01:52:46;100497.88;;;22.84;77.10
50349;BME280;36250;48.740;22.174;2023-08-24T01:55:11;100498.34;;;22.86;77.20
50349;BME280;36250;48.740;22.174;2023-08-24T01:57:37;100495.09;;;22.84;77.26
50349;BME280;36250;48.740;22.174;2023-08-24T02:00:02;100500.00;;;22.87;77.54
50349;BME280;36250;48.740;22.174;2023-08-24T02:02:31;100497.56;;;22.95;77.85
50349;BME280;36250;48.740;22.174;2023-08-24T02:04:58;100495.44;;;23.09;77.46
50349;BME280;36250;48.740;22.174;2023-08-24T02:07:23;100497.41;;;23.17;76.64
50349;BME280;36250;48.740;22.174;2023-08-24T02:09:48;100500.03;;;23.22;76.77
50349;BME280;36250;48.740;22.174;2023-08-24T02:12:13;100502.31;;;23.20;76.72
50349;BME280;36250;48.740;22.174;2023-08-24T02:14:38;100501.50;;;23.19;76.36
50349;BME280;36250;48.740;22.174;2023-08-24T02:17:04;100500.19;;;23.00;76.07
50349;BME280;36250;48.740;22.174;2023-08-24T02:19:29;100504.06;;;22.81;76.17
50349;BME280;36250;48.740;22.174;2023-08-24T02:21:54;100501.09;;;22.69;76.01
50349;BME280;36250;48.740;22.174;2023-08-24T02:24:20;100506.00;;;22.64;76.53
50349;BME280;36250;48.740;22.174;2023-08-24T02:26:45;100495.31;;;22.49;75.68
50349;BME280;36250;48.740;22.174;2023-08-24T02:29:10;100495.00;;;22.50;75.62
50349;BME280;36250;48.740;22.174;2023-08-24T02:31:35;100487.81;;;22.49;75.35
50349;BME280;36250;48.740;22.174;2023-08-24T02:34:01;100498.09;;;22.49;75.22
50349;BME280;36250;48.740;22.174;2023-08-24T02:36:27;100491.72;;;22.48;75.28
50349;BME280;36250;48.740;22.174;2023-08-24T02:38:53;100496.44;;;22.39;75.21
50349;BME280;36250;48.740;22.174;2023-08-24T02:41:19;100494.28;;;22.28;75.77
50349;BME280;36250;48.740;22.174;2023-08-24T02:43:44;100491.66;;;22.22;75.76
50349;BME280;36250;48.740;22.174;2023-08-24T02:46:09;100491.78;;;22.17;76.41
50349;BME280;36250;48.740;22.174;2023-08-24T02:48:35;100497.47;;;22.12;76.77
50349;BME280;36250;48.740;22.174;2023-08-24T02:51:01;100502.53;;;22.10;77.30
50349;BME280;36250;48.740;22.174;2023-08-24T02:53:28;100497.16;;;22.14;77.79
50349;BME280;36250;48.740;22.174;2023-08-24T02:55:53;100501.91;;;22.22;78.02
50349;BME280;36250;48.740;22.174;2023-08-24T02:58:19;100494.44;;;22.31;78.15
50349;BME280;36250;48.740;22.174;2023-08-24T03:00:44;100500.66;;;22.37;78.25
50349;BME280;36250;48.740;22.174;2023-08-24T03:03:09;100505.75;;;22.43;78.04
50349;BME280;36250;48.740;22.174;2023-08-24T03:05:34;100508.56;;;22.52;77.71
50349;BME280;36250;48.740;22.174;2023-08-24T03:08:00;100509.19;;;22.57;77.03
50349;BME280;36250;48.740;22.174;2023-08-24T03:10:25;100512.88;;;22.66;76.84
50349;BME280;36250;48.740;22.174;2023-08-24T03:12:50;100509.59;;;22.73;76.62
50349;BME280;36250;48.740;22.174;2023-08-24T03:15:16;100521.53;;;22.73;75.98
50349;BME280;36250;48.740;22.174;2023-08-24T03:17:41;100525.44;;;22.72;75.80
50349;BME280;36250;48.740;22.174;2023-08-24T03:20:07;100519.25;;;22.75;75.69
50349;BME280;36250;48.740;22.174;2023-08-24T03:22:33;100520.22;;;22.79;75.58
50349;BME280;36250;48.740;22.174;2023-08-24T03:24:58;100515.50;;;22.80;75.24
50349;BME280;36250;48.740;22.174;2023-08-24T03:27:23;100514.69;;;22.79;75.54
50349;BME280;36250;48.740;22.174;2023-08-24T03:29:49;100514.34;;;22.72;75.74
50349;BME280;36250;48.740;22.174;2023-08-24T03:32:14;100509.94;;;22.71;76.07
50349;BME280;36250;48.740;22.174;2023-08-24T03:34:39;100511.25;;;22.74;76.05
50349;BME280;36250;48.740;22.174;2023-08-24T03:37:05;100518.91;;;22.77;75.99
50349;BME280;36250;48.740;22.174;2023-08-24T03:39:30;100513.38;;;22.77;76.04
50349;BME280;36250;48.740;22.174;2023-08-24T03:41:55;100519.25;;;22.75;75.59
50349;BME280;36250;48.740;22.174;2023-08-24T03:44:20;100526.91;;;22.70;74.92
50349;BME280;36250;48.740;22.174;2023-08-24T03:46:46;100531.19;;;22.76;74.44
50349;BME280;36250;48.740;22.174;2023-08-24T03:49:11;100532.94;;;22.63;74.10
50349;BME280;36250;48.740;22.174;2023-08-24T03:51:37;100533.38;;;22.57;74.05
50349;BME280;36250;48.740;22.174;2023-08-24T03:54:02;100535.47;;;22.51;74.32
50349;BME280;36250;48.740;22.174;2023-08-24T03:56:28;100539.88;;;22.52;74.43
50349;BME280;36250;48.740;22.174;2023-08-24T03:58:53;100541.53;;;22.53;74.35
50349;BME280;36250;48.740;22.174;2023-08-24T04:01:18;100544.94;;;22.50;74.69
50349;BME280;36250;48.740;22.174;2023-08-24T04:03:43;100540.69;;;22.53;74.58
50349;BME280;36250;48.740;22.174;2023-08-24T04:06:09;100538.53;;;22.41;75.16
50349;BME280;36250;48.740;22.174;2023-08-24T04:08:34;100549.56;;;22.24;75.86
50349;BME280;36250;48.740;22.174;2023-08-24T04:10:59;100547.13;;;22.31;76.12
50349;BME280;36250;48.740;22.174;2023-08-24T04:13:25;100546.56;;;22.51;76.05
50349;BME280;36250;48.740;22.174;2023-08-24T04:15:50;100545.84;;;22.68;75.86
50349;BME280;36250;48.740;22.174;2023-08-24T04:18:15;100549.00;;;22.83;75.29
50349;BME280;36250;48.740;22.174;2023-08-24T04:20:40;100550.31;;;22.95;74.43
50349;BME280;36250;48.740;22.174;2023-08-24T04:23:06;100543.13;;;22.94;74.83
50349;BME280;36250;48.740;22.174;2023-08-24T04:25:31;100546.56;;;22.99;74.83
50349;BME280;36250;48.740;22.174;2023-08-24T04:27:56;100554.72;;;23.04;74.18
50349;BME280;36250;48.740;22.174;2023-08-24T04:30:21;100555.69;;;22.82;74.81
50349;BME280;36250;48.740;22.174;2023-08-24T04:32:47;100557.78;;;22.68;75.75
50349;BME280;36250;48.740;22.174;2023-08-24T04:35:12;100558.25;;;22.62;75.53
50349;BME280;36250;48.740;22.174;2023-08-24T04:37:37;100564.59;;;22.62;75.75
50349;BME280;36250;48.740;22.174;2023-08-24T04:40:03;100560.94;;;22.53;76.03
50349;BME280;36250;48.740;22.174;2023-08-24T04:42:29;100565.66;;;22.53;76.31
50349;BME280;36250;48.740;22.174;2023-08-24T04:44:54;100567.66;;;22.61;76.28
50349;BME280;36250;48.740;22.174;2023-08-24T04:47:19;100566.50;;;22.53;75.91
50349;BME280;36250;48.740;22.174;2023-08-24T04:49:45;100564.44;;;22.67;76.10
50349;BME280;36250;48.740;22.174;2023-08-24T04:52:10;100560.25;;;22.78;75.87
50349;BME280;36250;48.740;22.174;2023-08-24T04:54:35;100569.25;;;22.93;75.66
50349;BME280;36250;48.740;22.174;2023-08-24T04:57:00;100567.16;;;22.98;75.25
50349;BME280;36250;48.740;22.174;2023-08-24T04:59:26;100559.81;;;23.11;75.36
50349;BME280;36250;48.740;22.174;2023-08-24T05:01:51;100561.13;;;23.22;74.88
50349;BME280;36250;48.740;22.174;2023-08-24T05:04:16;100566.03;;;23.25;74.95
50349;BME280;36250;48.740;22.174;2023-08-24T05:06:41;100559.53;;;23.38;74.46
50349;BME280;36250;48.740;22.174;2023-08-24T05:09:06;100557.59;;;23.47;74.57
50349;BME280;36250;48.740;22.174;2023-08-24T05:11:33;100555.78;;;23.60;74.31
50349;BME280;36250;48.740;22.174;2023-08-24T05:13:58;100560.03;;;23.74;73.83
50349;BME280;36250;48.740;22.174;2023-08-24T05:16:23;100564.91;;;23.86;73.45
50349;BME280;36250;48.740;22.174;2023-08-24T05:18:49;100558.31;;;23.99;72.93
50349;BME280;36250;48.740;22.174;2023-08-24T05:21:14;100563.09;;;23.98;72.10
50349;BME280;36250;48.740;22.174;2023-08-24T05:23:39;100565.38;;;23.88;72.06
50349;BME280;36250;48.740;22.174;2023-08-24T05:26:05;100564.88;;;23.94;72.94
50349;BME280;36250;48.740;22.174;2023-08-24T05:28:30;100570.06;;;24.22;72.73
50349;BME280;36250;48.740;22.174;2023-08-24T05:30:56;100567.41;;;24.42;72.43
50349;BME280;36250;48.740;22.174;2023-08-24T05:33:22;100565.72;;;24.50;71.97
50349;BME280;36250;48.740;22.174;2023-08-24T05:35:48;100565.31;;;24.68;70.94
50349;BME280;36250;48.740;22.174;2023-08-24T05:38:13;100562.34;;;24.73;70.32
50349;BME280;36250;48.740;22.174;2023-08-24T05:40:39;100561.50;;;24.73;70.00
50349;BME280;36250;48.740;22.174;2023-08-24T05:43:04;100563.00;;;24.70;69.50
50349;BME280;36250;48.740;22.174;2023-08-24T05:45:30;100572.50;;;24.78;69.52
50349;BME280;36250;48.740;22.174;2023-08-24T05:47:55;100560.63;;;24.90;68.92
50349;BME280;36250;48.740;22.174;2023-08-24T05:50:20;100563.38;;;24.98;68.01
50349;BME280;36250;48.740;22.174;2023-08-24T05:52:45;100570.72;;;25.03;68.38
50349;BME280;36250;48.740;22.174;2023-08-24T05:55:10;100565.56;;;25.13;68.36
50349;BME280;36250;48.740;22.174;2023-08-24T05:57:36;100567.25;;;25.26;67.45
50349;BME280;36250;48.740;22.174;2023-08-24T06:00:01;100564.34;;;25.43;67.86
50349;BME280;36250;48.740;22.174;2023-08-24T06:02:26;100560.22;;;25.50;67.54
50349;BME280;36250;48.740;22.174;2023-08-24T06:04:51;100562.34;;;25.53;66.88
50349;BME280;36250;48.740;22.174;2023-08-24T06:07:17;100548.19;;;25.58;66.87
50349;BME280;36250;48.740;22.174;2023-08-24T06:09:43;100548.91;;;25.67;66.72
50349;BME280;36250;48.740;22.174;2023-08-24T06:12:08;100552.44;;;25.76;66.65
50349;BME280;36250;48.740;22.174;2023-08-24T06:14:33;100548.81;;;25.75;66.21
50349;BME280;36250;48.740;22.174;2023-08-24T06:16:58;100550.38;;;25.85;66.42
50349;BME280;36250;48.740;22.174;2023-08-24T06:19:23;100553.19;;;25.97;65.00
50349;BME280;36250;48.740;22.174;2023-08-24T06:21:49;100549.97;;;26.07;64.43
50349;BME280;36250;48.740;22.174;2023-08-24T06:24:14;100549.09;;;26.15;63.86
50349;BME280;36250;48.740;22.174;2023-08-24T06:26:39;100544.56;;;26.23;64.03
50349;BME280;36250;48.740;22.174;2023-08-24T06:29:05;100549.56;;;26.29;61.17
50349;BME280;36250;48.740;22.174;2023-08-24T06:31:30;100549.03;;;26.36;61.76
50349;BME280;36250;48.740;22.174;2023-08-24T06:33:56;100548.44;;;26.42;61.74
50349;BME280;36250;48.740;22.174;2023-08-24T06:36:21;100553.81;;;26.47;61.68
50349;BME280;36250;48.740;22.174;2023-08-24T06:38:46;100547.75;;;26.57;62.04
50349;BME280;36250;48.740;22.174;2023-08-24T06:41:12;100549.97;;;26.52;62.21
50349;BME280;36250;48.740;22.174;2023-08-24T06:43:37;100548.22;;;26.59;61.99
50349;BME280;36250;48.740;22.174;2023-08-24T06:46:06;100541.00;;;26.70;62.38
50349;BME280;36250;48.740;22.174;2023-08-24T06:48:34;100545.00;;;26.82;62.16
50349;BME280;36250;48.740;22.174;2023-08-24T06:50:59;100549.41;;;26.83;61.28
50349;BME280;36250;48.740;22.174;2023-08-24T06:53:24;100548.91;;;26.93;61.94
50349;BME280;36250;48.740;22.174;2023-08-24T06:55:56;100551.94;;;27.00;61.06
50349;BME280;36250;48.740;22.174;2023-08-24T06:58:21;100550.44;;;26.90;60.59
50349;BME280;36250;48.740;22.174;2023-08-24T07:00:47;100545.34;;;26.92;61.11
50349;BME280;36250;48.740;22.174;2023-08-24T07:03:12;100551.25;;;26.91;61.38
50349;BME280;36250;48.740;22.174;2023-08-24T07:05:38;100548.56;;;27.06;62.07
50349;BME280;36250;48.740;22.174;2023-08-24T07:08:03;100557.97;;;27.26;62.01
50349;BME280;36250;48.740;22.174;2023-08-24T07:10:29;100564.25;;;27.23;61.03
50349;BME280;36250;48.740;22.174;2023-08-24T07:12:54;100566.69;;;27.24;61.09
50349;BME280;36250;48.740;22.174;2023-08-24T07:15:19;100562.63;;;27.22;61.53
50349;BME280;36250;48.740;22.174;2023-08-24T07:17:45;100557.84;;;27.22;62.30
50349;BME280;36250;48.740;22.174;2023-08-24T07:20:10;100561.81;;;27.21;60.95
50349;BME280;36250;48.740;22.174;2023-08-24T07:22:39;100562.84;;;27.17;61.72
50349;BME280;36250;48.740;22.174;2023-08-24T07:25:04;100568.22;;;27.22;62.65
50349;BME280;36250;48.740;22.174;2023-08-24T07:27:33;100562.94;;;27.32;62.23
50349;BME280;36250;48.740;22.174;2023-08-24T07:29:59;100561.06;;;27.49;62.34
50349;BME280;36250;48.740;22.174;2023-08-24T07:32:26;100564.34;;;27.51;61.20
50349;BME280;36250;48.740;22.174;2023-08-24T07:34:51;100569.72;;;27.44;61.73
50349;BME280;36250;48.740;22.174;2023-08-24T07:37:16;100570.44;;;27.41;61.77
50349;BME280;36250;48.740;22.174;2023-08-24T07:39:41;100568.19;;;27.46;62.31
50349;BME280;36250;48.740;22.174;2023-08-24T07:42:07;100558.38;;;27.52;59.66
50349;BME280;36250;48.740;22.174;2023-08-24T07:44:32;100560.22;;;27.60;59.48
50349;BME280;36250;48.740;22.174;2023-08-24T07:46:57;100566.28;;;27.62;58.57
50349;BME280;36250;48.740;22.174;2023-08-24T07:49:22;100559.22;;;27.68;58.24
50349;BME280;36250;48.740;22.174;2023-08-24T07:51:47;100560.00;;;27.81;57.39
50349;BME280;36250;48.740;22.174;2023-08-24T07:54:13;100556.50;;;27.84;57.10
50349;BME280;36250;48.740;22.174;2023-08-24T07:56:38;100564.63;;;27.89;58.47
50349;BME280;36250;48.740;22.174;2023-08-24T07:59:03;100561.28;;;28.11;58.25
50349;BME280;36250;48.740;22.174;2023-08-24T08:01:28;100560.66;;;28.18;57.18
50349;BME280;36250;48.740;22.174;2023-08-24T08:03:54;100568.78;;;28.23;58.00
50349;BME280;36250;48.740;22.174;2023-08-24T08:06:19;100565.47;;;28.33;58.13
50349;BME280;36250;48.740;22.174;2023-08-24T08:08:46;100560.41;;;28.38;57.86
50349;BME280;36250;48.740;22.174;2023-08-24T08:11:12;100562.03;;;28.55;57.24
50349;BME280;36250;48.740;22.174;2023-08-24T08:13:37;100559.44;;;28.62;58.00
50349;BME280;36250;48.740;22.174;2023-08-24T08:16:06;100556.25;;;28.79;56.58
50349;BME280;36250;48.740;22.174;2023-08-24T08:18:32;100562.13;;;28.90;56.06
50349;BME280;36250;48.740;22.174;2023-08-24T08:20:58;100563.47;;;28.96;55.31
50349;BME280;36250;48.740;22.174;2023-08-24T08:23:23;100562.00;;;29.02;54.48
50349;BME280;36250;48.740;22.174;2023-08-24T08:25:48;100557.53;;;29.16;54.98
50349;BME280;36250;48.740;22.174;2023-08-24T08:28:13;100558.56;;;29.24;53.79
50349;BME280;36250;48.740;22.174;2023-08-24T08:30:39;100563.88;;;29.29;53.14
50349;BME280;36250;48.740;22.174;2023-08-24T08:33:04;100565.44;;;29.46;52.64
50349;BME280;36250;48.740;22.174;2023-08-24T08:35:29;100567.72;;;29.59;53.33
50349;BME280;36250;48.740;22.174;2023-08-24T08:37:55;100556.13;;;29.61;51.20
50349;BME280;36250;48.740;22.174;2023-08-24T08:40:20;100565.31;;;29.77;50.72
50349;BME280;36250;48.740;22.174;2023-08-24T08:42:45;100555.03;;;29.65;50.32
50349;BME280;36250;48.740;22.174;2023-08-24T08:45:11;100555.38;;;29.64;49.76
50349;BME280;36250;48.740;22.174;2023-08-24T08:47:37;100553.03;;;29.66;49.75
50349;BME280;36250;48.740;22.174;2023-08-24T08:50:03;100552.09;;;29.77;50.61
50349;BME280;36250;48.740;22.174;2023-08-24T08:52:28;100556.88;;;29.96;50.44
50349;BME280;36250;48.740;22.174;2023-08-24T08:54:54;100557.63;;;29.93;48.28
50349;BME280;36250;48.740;22.174;2023-08-24T08:57:19;100550.50;;;29.99;47.75
50349;BME280;36250;48.740;22.174;2023-08-24T08:59:46;100549.72;;;30.21;48.65
50349;BME280;36250;48.740;22.174;2023-08-24T09:02:13;100551.81;;;30.47;47.12
50349;BME280;36250;48.740;22.174;2023-08-24T09:04:40;100552.88;;;30.62;45.71
50349;BME280;36250;48.740;22.174;2023-08-24T09:07:05;100551.91;;;30.77;45.73
50349;BME280;36250;48.740;22.174;2023-08-24T09:09:37;100541.03;;;30.98;45.22
50349;BME280;36250;48.740;22.174;2023-08-24T09:12:03;100554.75;;;31.29;44.89
50349;BME280;36250;48.740;22.174;2023-08-24T09:14:28;100549.91;;;31.56;43.08
50349;BME280;36250;48.740;22.174;2023-08-24T09:16:54;100543.03;;;31.53;42.31
50349;BME280;36250;48.740;22.174;2023-08-24T09:19:19;100539.44;;;31.56;43.61
50349;BME280;36250;48.740;22.174;2023-08-24T09:21:54;100538.63;;;31.56;42.95
50349;BME280;36250;48.740;22.174;2023-08-24T09:24:28;100534.31;;;31.62;42.24
50349;BME280;36250;48.740;22.174;2023-08-24T09:26:53;100530.84;;;31.75;41.67
50349;BME280;36250;48.740;22.174;2023-08-24T09:29:19;100534.81;;;31.74;41.49
50349;BME280;36250;48.740;22.174;2023-08-24T09:31:45;100532.91;;;31.82;41.76
50349;BME280;36250;48.740;22.174;2023-08-24T09:34:10;100538.19;;;31.87;41.18
50349;BME280;36250;48.740;22.174;2023-08-24T09:36:36;100530.34;;;31.66;42.40
50349;BME280;36250;48.740;22.174;2023-08-24T09:39:02;100527.84;;;31.32;42.93
50349;BME280;36250;48.740;22.174;2023-08-24T09:41:43;100527.81;;;31.02;44.26
50349;BME280;36250;48.740;22.174;2023-08-24T09:44:08;100529.47;;;30.80;44.46
50349;BME280;36250;48.740;22.174;2023-08-24T09:46:34;100528.22;;;30.51;44.99
50349;BME280;36250;48.740;22.174;2023-08-24T09:49:00;100528.69;;;30.57;44.27
50349;BME280;36250;48.740;22.174;2023-08-24T09:51:26;100527.59;;;30.62;43.88
50349;BME280;36250;48.740;22.174;2023-08-24T09:53:52;100526.56;;;30.73;42.59
50349;BME280;36250;48.740;22.174;2023-08-24T09:56:18;100523.16;;;30.87;42.11
50349;BME280;36250;48.740;22.174;2023-08-24T09:58:45;100527.31;;;30.93;43.31
50349;BME280;36250;48.740;22.174;2023-08-24T10:01:11;100523.59;;;31.15;40.64
50349;BME280;36250;48.740;22.174;2023-08-24T10:03:36;100521.41;;;31.31;40.28
50349;BME280;36250;48.740;22.174;2023-08-24T10:06:05;100525.81;;;31.58;40.21
50349;BME280;36250;48.740;22.174;2023-08-24T10:08:36;100526.78;;;31.73;40.55
50349;BME280;36250;48.740;22.174;2023-08-24T10:11:02;100523.56;;;31.74;40.38
50349;BME280;36250;48.740;22.174;2023-08-24T10:13:44;100525.84;;;31.62;39.61
50349;BME280;36250;48.740;22.174;2023-08-24T10:16:13;100514.81;;;31.50;39.36
50349;BME280;36250;48.740;22.174;2023-08-24T10:18:40;100520.84;;;31.48;39.94
50349;BME280;36250;48.740;22.174;2023-08-24T10:21:05;100511.25;;;31.53;39.70
50349;BME280;36250;48.740;22.174;2023-08-24T10:23:30;100509.66;;;31.55;37.64
50349;BME280;36250;48.740;22.174;2023-08-24T10:25:56;100515.72;;;31.57;38.14
50349;BME280;36250;48.740;22.174;2023-08-24T10:28:23;100510.69;;;31.73;38.02
50349;BME280;36250;48.740;22.174;2023-08-24T10:30:49;100502.00;;;31.89;38.50
50349;BME280;36250;48.740;22.174;2023-08-24T10:33:14;100505.63;;;32.26;38.04
50349;BME280;36250;48.740;22.174;2023-08-24T10:35:40;100500.34;;;32.65;37.25
50349;BME280;36250;48.740;22.174;2023-08-24T10:38:07;100502.47;;;32.79;37.27
50349;BME280;36250;48.740;22.174;2023-08-24T10:40:33;100497.28;;;32.40;35.67
50349;BME280;36250;48.740;22.174;2023-08-24T10:42:59;100505.72;;;31.97;35.93
50349;BME280;36250;48.740;22.174;2023-08-24T10:45:27;100505.78;;;31.67;37.43
50349;BME280;36250;48.740;22.174;2023-08-24T10:48:12;100500.88;;;31.60;36.74
50349;BME280;36250;48.740;22.174;2023-08-24T10:50:37;100493.06;;;31.80;35.68
50349;BME280;36250;48.740;22.174;2023-08-24T10:53:02;100497.94;;;31.87;35.19
50349;BME280;36250;48.740;22.174;2023-08-24T10:55:29;100490.66;;;32.19;35.70
50349;BME280;36250;48.740;22.174;2023-08-24T10:58:00;100495.13;;;32.20;36.74
50349;BME280;36250;48.740;22.174;2023-08-24T11:00:26;100491.09;;;31.84;36.51
50349;BME280;36250;48.740;22.174;2023-08-24T11:02:52;100492.66;;;31.78;37.90
50349;BME280;36250;48.740;22.174;2023-08-24T11:05:21;100500.59;;;31.69;39.47
50349;BME280;36250;48.740;22.174;2023-08-24T11:07:48;100500.88;;;31.57;39.58
50349;BME280;36250;48.740;22.174;2023-08-24T11:10:13;100492.22;;;31.76;38.86
50349;BME280;36250;48.740;22.174;2023-08-24T11:15:34;100481.59;;;32.39;39.26
50349;BME280;36250;48.740;22.174;2023-08-24T11:20:43;100480.25;;;32.23;37.89
50349;BME280;36250;48.740;22.174;2023-08-24T11:23:09;100477.34;;;32.12;38.22
50349;BME280;36250;48.740;22.174;2023-08-24T11:25:37;100475.19;;;32.46;37.25
50349;BME280;36250;48.740;22.174;2023-08-24T11:28:03;100469.63;;;32.53;37.63
50349;BME280;36250;48.740;22.174;2023-08-24T11:30:29;100469.00;;;32.74;37.07
50349;BME280;36250;48.740;22.174;2023-08-24T11:32:55;100472.72;;;32.37;37.84
50349;BME280;36250;48.740;22.174;2023-08-24T11:35:20;100465.06;;;32.38;38.21
50349;BME280;36250;48.740;22.174;2023-08-24T11:37:54;100464.88;;;32.17;39.23
50349;BME280;36250;48.740;22.174;2023-08-24T11:40:19;100466.81;;;32.06;39.65
50349;BME280;36250;48.740;22.174;2023-08-24T11:42:45;100465.53;;;32.00;39.68
50349;BME280;36250;48.740;22.174;2023-08-24T11:45:11;100460.50;;;31.82;38.17
50349;BME280;36250;48.740;22.174;2023-08-24T11:47:38;100458.72;;;32.01;39.20
50349;BME280;36250;48.740;22.174;2023-08-24T11:50:03;100463.19;;;32.09;36.90
50349;BME280;36250;48.740;22.174;2023-08-24T11:52:29;100465.19;;;32.05;36.15
50349;BME280;36250;48.740;22.174;2023-08-24T11:54:54;100460.84;;;32.14;34.73
50349;BME280;36250;48.740;22.174;2023-08-24T11:57:20;100466.34;;;32.47;36.15
50349;BME280;36250;48.740;22.174;2023-08-24T11:59:45;100452.19;;;32.91;35.45
50349;BME280;36250;48.740;22.174;2023-08-24T12:02:10;100458.13;;;32.28;34.03
50349;BME280;36250;48.740;22.174;2023-08-24T12:04:42;100456.94;;;31.89;34.21
50349;BME280;36250;48.740;22.174;2023-08-24T12:07:08;100456.00;;;31.74;34.83
50349;BME280;36250;48.740;22.174;2023-08-24T12:09:33;100457.16;;;31.70;33.89
50349;BME280;36250;48.740;22.174;2023-08-24T12:11:59;100462.91;;;31.80;34.81
50349;BME280;36250;48.740;22.174;2023-08-24T12:14:24;100465.13;;;31.98;34.93
50349;BME280;36250;48.740;22.174;2023-08-24T12:16:49;100459.25;;;32.17;36.10
50349;BME280;36250;48.740;22.174;2023-08-24T12:19:18;100456.69;;;32.45;37.06
50349;BME280;36250;48.740;22.174;2023-08-24T12:21:46;100451.03;;;32.45;35.24
50349;BME280;36250;48.740;22.174;2023-08-24T12:24:14;100455.22;;;32.65;35.93
50349;BME280;36250;48.740;22.174;2023-08-24T12:26:40;100457.78;;;32.88;35.86
50349;BME280;36250;48.740;22.174;2023-08-24T12:29:06;100448.03;;;32.71;36.63
50349;BME280;36250;48.740;22.174;2023-08-24T12:31:35;100453.09;;;32.01;37.84
50349;BME280;36250;48.740;22.174;2023-08-24T12:34:04;100453.44;;;31.59;39.57
50349;BME280;36250;48.740;22.174;2023-08-24T12:36:33;100454.63;;;31.28;40.60
50349;BME280;36250;48.740;22.174;2023-08-24T12:38:58;100445.88;;;31.66;40.61